Time;durP1;ratioP1;P1;durP2;ratioP2;P2;SDS_P1;SDS_P2;PMS_P1;PMS_P2;Temp;Humidity;BMP_temperature;BMP_pressure;BME280_temperature;BME280_humidity;BME280_pressure;Samples;Min_cycle;Max_cycle;Signal;HPM_P1;HPM_P2
2022/01/23 00:00:26;;;;;;;15.02;7.35;;;;;;;2.11;72.84;102967.25;5022204;28;20203;-46
2022/01/23 00:02:55;;;;;;;11.00;6.43;;;;;;;2.13;72.94;102967.94;5018944;28;20037;-45
2022/01/23 00:05:23;;;;;;;13.05;6.40;;;;;;;2.21;72.68;102961.13;5018345;28;20017;-46
2022/01/23 00:07:51;;;;;;;13.98;5.47;;;;;;;2.25;72.68;102968.66;4999357;28;20025;-45
2022/01/23 00:10:16;;;;;;;12.27;6.25;;;;;;;2.32;72.18;102968.91;5003910;28;20088;-46
2022/01/23 00:12:50;;;;;;;11.80;6.78;;;;;;;2.36;71.94;102965.03;5004001;28;20403;-46
2022/01/23 00:18:00;;;;;;;12.55;6.40;;;;;;;2.43;71.74;102960.84;5018843;28;20275;-46
2022/01/23 00:20:26;;;;;;;14.80;6.22;;;;;;;2.47;71.57;102953.47;5021678;28;20586;-46
2022/01/23 00:22:53;;;;;;;11.63;6.45;;;;;;;2.49;71.93;102951.50;5020093;28;20458;-46
2022/01/23 00:30:49;;;;;;;13.75;5.97;;;;;;;2.55;71.44;102941.22;5017351;28;20685;-46
2022/01/23 00:33:15;;;;;;;13.70;6.30;;;;;;;2.56;71.69;102937.59;5020760;28;20108;-46
2022/01/23 00:35:44;;;;;;;14.82;6.55;;;;;;;2.57;71.84;102931.31;5019685;28;20029;-46
2022/01/23 00:38:11;;;;;;;13.73;6.70;;;;;;;2.59;71.44;102932.00;5021544;28;20056;-46
2022/01/23 00:40:38;;;;;;;10.93;6.68;;;;;;;2.53;73.55;102932.59;4999004;28;20033;-46
2022/01/23 00:45:53;;;;;;;15.98;8.10;;;;;;;2.40;74.17;102938.16;5022383;28;20064;-46
2022/01/23 00:48:25;;;;;;;17.73;7.90;;;;;;;2.27;75.41;102945.53;5015632;28;20542;-46
2022/01/23 00:50:50;;;;;;;15.40;7.30;;;;;;;2.07;77.17;102942.06;5020147;28;20181;-46
2022/01/23 00:53:15;;;;;;;18.00;7.60;;;;;;;1.96;77.77;102957.22;5018638;28;20026;-46
2022/01/23 00:55:44;;;;;;;22.67;8.35;;;;;;;1.90;77.92;102966.53;5018915;28;20029;-46
2022/01/23 00:58:10;;;;;;;15.68;7.97;;;;;;;1.88;78.72;102957.91;5002175;28;20029;-46
2022/01/23 01:00:37;;;;;;;18.02;7.47;;;;;;;1.90;78.47;102963.88;5023370;28;20537;-46
2022/01/23 01:03:03;;;;;;;19.38;8.48;;;;;;;1.96;77.35;102965.97;5025009;28;20072;-46
2022/01/23 01:05:30;;;;;;;19.02;7.70;;;;;;;1.97;79.07;102962.34;5024268;28;20029;-46
2022/01/23 01:07:57;;;;;;;17.75;7.65;;;;;;;1.96;78.09;102979.19;5021781;28;20064;-46
2022/01/23 01:10:28;;;;;;;11.93;6.60;;;;;;;2.07;77.35;102973.78;5018033;28;20018;-45
2022/01/23 01:12:59;;;;;;;11.73;7.32;;;;;;;2.18;77.14;102978.13;5017842;28;20448;-46
2022/01/23 01:31:35;;;;;;;15.88;7.07;;;;;;;2.43;77.76;102985.50;5021562;28;20056;-46
2022/01/23 01:36:44;;;;;;;17.48;7.95;;;;;;;2.45;77.68;102982.72;5021424;28;20116;-46
2022/01/23 01:39:10;;;;;;;14.27;7.35;;;;;;;2.51;76.61;102983.94;5022427;28;20392;-46
2022/01/23 01:41:38;;;;;;;16.77;7.50;;;;;;;2.54;76.11;102981.06;5018660;28;20250;-46
2022/01/23 01:44:04;;;;;;;17.13;7.28;;;;;;;2.60;75.54;102976.03;5022534;28;20029;-46
2022/01/23 01:46:30;;;;;;;13.90;7.25;;;;;;;2.61;75.49;102979.50;5015835;28;20403;-45
2022/01/23 01:48:56;;;;;;;17.38;6.90;;;;;;;2.58;77.11;102966.56;5023736;28;20033;-46
2022/01/23 01:51:21;;;;;;;12.88;6.25;;;;;;;2.58;76.59;102967.38;5020589;28;20037;-47
2022/01/23 01:54:03;;;;;;;19.30;7.93;;;;;;;2.60;75.93;102962.78;5018208;28;20037;-46
2022/01/23 01:56:36;;;;;;;15.75;7.85;;;;;;;2.63;75.85;102959.84;5013995;28;20025;-46
2022/01/23 02:09:41;;;;;;;17.95;8.27;;;;;;;2.53;85.87;102968.78;5019513;28;20041;-46
2022/01/23 02:14:46;;;;;;;22.02;9.43;;;;;;;2.58;84.73;102956.81;5016442;28;20029;-46
2022/01/23 02:55:14;;;;;;;31.40;11.48;;;;;;;2.93;83.98;102987.94;5020335;28;20053;-46
2022/01/23 03:00:18;;;;;;;30.20;10.63;;;;;;;2.98;84.44;102990.16;5022379;28;20032;-45
2022/01/23 03:02:46;;;;;;;27.92;9.98;;;;;;;2.98;84.17;102990.16;5017242;28;20112;-46
2022/01/23 03:05:13;;;;;;;23.58;9.88;;;;;;;2.98;84.52;102983.06;5015783;28;20083;-46
2022/01/23 03:10:26;;;;;;;21.67;8.30;;;;;;;2.99;84.81;102997.97;5018003;28;20056;-46
2022/01/23 03:33:46;;;;;;;24.98;9.80;;;;;;;3.05;84.95;102972.72;5017685;28;20059;-46
2022/01/23 03:36:12;;;;;;;30.90;11.15;;;;;;;3.06;84.58;102985.00;5021308;28;20487;-46
2022/01/23 03:38:37;;;;;;;37.30;11.50;;;;;;;3.11;84.06;102993.34;5024819;28;20040;-46
2022/01/23 03:41:03;;;;;;;36.30;12.65;;;;;;;3.18;82.90;102991.78;5019795;28;20037;-45
2022/01/23 03:43:32;;;;;;;44.95;13.07;;;;;;;3.21;82.69;102995.94;5020245;28;20020;-46
2022/01/23 03:51:08;;;;;;;43.60;13.20;;;;;;;3.26;82.96;102985.78;5020728;28;20106;-46
2022/01/23 03:53:33;;;;;;;39.05;13.50;;;;;;;3.26;83.34;102988.41;5020463;28;20374;-47
2022/01/23 03:55:59;;;;;;;41.63;13.95;;;;;;;3.21;85.66;102993.28;5019593;28;20061;-46
2022/01/23 03:58:24;;;;;;;36.75;13.93;;;;;;;3.20;85.14;102986.31;5019971;28;20037;-47
2022/01/23 04:00:50;;;;;;;41.60;14.57;;;;;;;3.21;84.80;102991.47;5016186;28;20124;-46
2022/01/23 04:03:18;;;;;;;42.83;15.93;;;;;;;3.22;84.77;102984.38;5022332;28;20479;-47
2022/01/23 04:05:44;;;;;;;41.28;14.30;;;;;;;3.21;84.99;102986.19;5020432;28;20041;-46
2022/01/23 04:08:10;;;;;;;37.55;13.23;;;;;;;3.24;84.05;102987.72;5021635;28;20552;-46
2022/01/23 04:10:36;;;;;;;36.00;14.43;;;;;;;3.23;85.16;102992.19;5021088;28;20025;-46
2022/01/23 04:13:27;;;;;;;30.50;12.55;;;;;;;3.23;86.01;102993.97;5018332;28;20761;-46
2022/01/23 04:45:41;;;;;;;15.68;7.18;;;;;;;3.51;85.55;102994.84;5022025;28;20377;-47
2022/01/23 04:59:39;;;;;;;14.07;6.20;;;;;;;3.66;83.59;103016.41;5016356;28;20072;-47
2022/01/23 05:04:41;;;;;;;14.43;6.90;;;;;;;3.69;84.16;103024.91;5020350;28;20287;-46
2022/01/23 05:07:10;;;;;;;13.25;6.75;;;;;;;3.69;84.72;103016.13;5016820;28;20056;-46
2022/01/23 05:09:36;;;;;;;14.48;7.10;;;;;;;3.68;84.48;103023.25;5022847;28;20038;-48
2022/01/23 05:12:04;;;;;;;14.70;5.88;;;;;;;3.68;84.99;103027.72;5021462;28;20667;-46
2022/01/23 05:14:36;;;;;;;13.18;6.13;;;;;;;3.66;85.58;103030.50;5007077;28;20021;-46
2022/01/23 05:17:04;;;;;;;12.38;6.05;;;;;;;3.67;86.06;103029.53;5024564;28;20026;-46
2022/01/23 05:19:30;;;;;;;13.77;5.95;;;;;;;3.67;86.92;103028.69;5023780;28;20099;-46
2022/01/23 05:24:27;;;;;;;14.93;6.00;;;;;;;3.63;89.16;103028.16;5024243;28;20029;-46
2022/01/23 05:27:01;;;;;;;12.73;5.80;;;;;;;3.56;91.35;103021.75;5021972;28;20515;-46
2022/01/23 05:29:27;;;;;;;;;;;;;;;3.47;92.91;103033.25;5000935;28;20032;-46
2022/01/23 05:31:53;;;;;;;11.82;5.80;;;;;;;3.59;91.07;103037.34;5017168;28;19921;-46
2022/01/23 05:34:21;;;;;;;9.88;5.03;;;;;;;3.63;90.35;103036.94;5022557;28;20502;-46
2022/01/23 05:36:47;;;;;;;10.88;6.03;;;;;;;3.64;90.15;103035.13;5021737;28;20446;-46
2022/01/23 05:39:14;;;;;;;9.32;4.95;;;;;;;3.72;88.99;103039.69;5017993;28;20022;-46
2022/01/23 05:41:39;;;;;;;10.25;5.20;;;;;;;3.76;88.25;103033.94;5023061;28;20028;-46
2022/01/23 05:44:05;;;;;;;9.77;5.63;;;;;;;3.81;87.33;103031.69;5021896;28;20022;-46
2022/01/23 05:46:30;;;;;;;9.80;5.38;;;;;;;3.77;89.79;103025.03;5019720;28;20467;-49
2022/01/23 05:48:56;;;;;;;10.55;4.85;;;;;;;3.77;89.91;103030.31;5021828;28;20593;-47
2022/01/23 05:51:21;;;;;;;10.10;5.50;;;;;;;3.84;88.54;103042.00;5017563;28;20435;-46
2022/01/23 05:53:47;;;;;;;9.25;4.22;;;;;;;3.87;88.91;103047.00;5022289;28;20237;-46
2022/01/23 05:56:13;;;;;;;9.60;4.32;;;;;;;3.87;88.96;103054.97;5018100;28;20029;-48
2022/01/23 05:58:38;;;;;;;12.98;5.20;;;;;;;3.81;91.70;103057.38;5021218;28;20502;-47
2022/01/23 06:01:05;;;;;;;7.90;4.22;;;;;;;3.85;91.67;103064.06;5015911;28;20037;-46
2022/01/23 06:03:31;;;;;;;7.18;3.80;;;;;;;3.87;90.76;103062.09;5017682;28;20079;-48
2022/01/23 06:05:56;;;;;;;7.93;3.92;;;;;;;3.88;91.36;103071.72;5020775;28;20037;-46
2022/01/23 06:08:23;;;;;;;7.32;4.20;;;;;;;3.90;91.66;103077.69;5017742;28;20064;-46
2022/01/23 06:10:58;;;;;;;9.50;5.28;;;;;;;3.86;92.94;103073.69;5022659;28;20037;-46
2022/01/23 06:13:25;;;;;;;8.13;4.07;;;;;;;3.86;93.81;103063.06;5005476;28;20036;-47
2022/01/23 06:15:51;;;;;;;7.35;4.18;;;;;;;3.90;92.77;103072.38;5018623;28;20205;-46
2022/01/23 06:18:17;;;;;;;9.25;4.55;;;;;;;3.97;91.43;103073.50;5018375;28;20037;-47
2022/01/23 06:20:42;;;;;;;8.35;4.30;;;;;;;4.00;91.57;103077.66;5015483;28;20200;-47
2022/01/23 06:23:08;;;;;;;8.60;4.07;;;;;;;4.03;90.71;103077.38;5004885;28;20630;-47
2022/01/23 06:25:36;;;;;;;6.30;3.55;;;;;;;4.01;92.15;103069.56;5018602;28;20040;-47
2022/01/23 06:28:06;;;;;;;5.95;3.67;;;;;;;3.97;92.96;103078.78;5023360;28;20033;-47
2022/01/23 06:30:32;;;;;;;7.05;3.60;;;;;;;3.96;93.96;103077.13;5021125;28;20024;-46
2022/01/23 06:32:58;;;;;;;7.43;4.00;;;;;;;4.02;92.15;103076.53;5017503;28;20037;-47
2022/01/23 06:35:23;;;;;;;8.43;3.95;;;;;;;4.07;91.23;103068.13;5018154;28;20040;-47
2022/01/23 06:37:49;;;;;;;7.63;3.75;;;;;;;4.06;91.79;103064.63;5020131;28;20083;-47
2022/01/23 06:40:15;;;;;;;6.80;3.95;;;;;;;4.10;91.36;103065.16;5020077;28;20482;-48
2022/01/23 06:42:40;;;;;;;7.18;3.70;;;;;;;4.15;89.88;103068.22;5018221;28;20026;-47
2022/01/23 06:45:07;;;;;;;6.32;3.40;;;;;;;4.14;89.88;103070.03;5022739;28;20033;-46
2022/01/23 06:47:32;;;;;;;6.10;3.78;;;;;;;4.10;91.37;103083.72;5015450;28;20079;-46
2022/01/23 06:49:58;;;;;;;8.88;3.75;;;;;;;4.06;92.23;103082.38;5018319;28;20029;-47
2022/01/23 06:52:24;;;;;;;6.15;3.03;;;;;;;4.10;90.75;103089.03;5021501;28;20021;-46
2022/01/23 06:54:49;;;;;;;5.78;3.67;;;;;;;3.92;94.38;103091.66;5018173;28;20438;-47
2022/01/23 06:57:14;;;;;;;5.72;3.45;;;;;;;3.90;94.39;103083.84;5018795;28;20026;-48
2022/01/23 06:59:40;;;;;;;7.18;3.78;;;;;;;3.89;94.68;103089.28;5018024;28;20069;-48
2022/01/23 07:02:06;;;;;;;7.55;4.18;;;;;;;3.93;93.64;103088.84;5023922;28;20116;-46
2022/01/23 07:04:32;;;;;;;7.32;4.05;;;;;;;3.94;93.49;103090.50;5018154;28;20022;-46
2022/01/23 07:06:57;;;;;;;7.07;3.60;;;;;;;3.97;93.38;103099.19;5019072;28;20503;-46
2022/01/23 07:09:23;;;;;;;6.82;4.05;;;;;;;3.98;93.27;103100.84;5022386;28;20024;-47
2022/01/23 07:11:48;;;;;;;6.90;4.15;;;;;;;4.00;92.27;103106.84;5021156;28;20553;-47
2022/01/23 07:14:14;;;;;;;9.00;4.18;;;;;;;3.99;92.52;103106.00;5021388;28;20025;-47
2022/01/23 07:16:39;;;;;;;8.02;4.45;;;;;;;4.04;91.93;103100.25;5016993;28;20368;-46
2022/01/23 07:19:05;;;;;;;8.32;3.97;;;;;;;3.96;94.07;103101.00;4997871;28;20477;-46
2022/01/23 07:21:30;;;;;;;9.35;4.97;;;;;;;4.01;93.47;103106.69;5019047;28;20532;-47
2022/01/23 07:23:56;;;;;;;10.07;5.00;;;;;;;3.99;93.52;103100.69;5015960;28;20037;-46
2022/01/23 07:26:24;;;;;;;8.57;4.60;;;;;;;4.01;93.43;103100.56;5017994;28;20033;-46
2022/01/23 07:28:53;;;;;;;6.15;3.97;;;;;;;3.96;94.79;103110.78;5016696;28;20638;-47
2022/01/23 07:31:45;;;;;;;7.90;4.13;;;;;;;3.95;95.13;103112.59;5005929;28;20380;-47
2022/01/23 07:34:11;;;;;;;6.25;3.22;;;;;;;3.98;94.73;103112.28;5019336;28;20025;-48
2022/01/23 07:36:38;;;;;;;6.60;3.30;;;;;;;4.01;94.20;103117.31;5016744;28;20033;-48
2022/01/23 07:39:04;;;;;;;5.55;3.47;;;;;;;4.07;92.98;103123.81;5005688;28;20061;-47
2022/01/23 07:41:30;;;;;;;6.45;3.08;;;;;;;4.07;93.88;103115.88;5022126;28;20347;-46
2022/01/23 07:43:58;;;;;;;5.10;3.20;;;;;;;4.13;93.18;103126.75;5021096;28;21523;-46
2022/01/23 07:46:24;;;;;;;6.68;3.20;;;;;;;4.20;92.30;103127.81;5020059;28;20025;-46
2022/01/23 07:48:49;;;;;;;4.40;2.50;;;;;;;4.24;91.68;103133.66;5020346;28;20359;-47
2022/01/23 07:51:15;;;;;;;4.78;2.83;;;;;;;4.28;91.70;103128.88;5021803;28;20387;-47
2022/01/23 07:53:40;;;;;;;3.88;2.55;;;;;;;4.27;91.94;103133.34;5014794;28;20387;-49
2022/01/23 07:56:06;;;;;;;3.55;2.58;;;;;;;4.32;90.99;103136.44;5013589;28;20034;-47
2022/01/23 07:58:31;;;;;;;5.35;3.00;;;;;;;4.37;90.18;103136.81;5017451;28;20965;-49
2022/01/23 08:00:57;;;;;;;5.47;2.67;;;;;;;4.34;91.24;103137.09;5019564;28;20043;-46
2022/01/23 08:03:23;;;;;;;5.25;2.90;;;;;;;4.34;91.58;103137.09;5020446;28;20553;-46
2022/01/23 08:05:48;;;;;;;6.00;2.92;;;;;;;4.34;91.42;103133.63;5016614;28;20025;-48
2022/01/23 08:08:14;;;;;;;6.72;3.28;;;;;;;4.36;91.17;103142.25;5021235;28;20065;-47
2022/01/23 08:10:39;;;;;;;4.40;2.60;;;;;;;4.37;91.56;103146.59;5022015;28;20029;-47
2022/01/23 08:13:05;;;;;;;6.70;3.17;;;;;;;4.36;92.06;103147.56;5023179;28;20107;-46
2022/01/23 08:15:32;;;;;;;6.75;3.28;;;;;;;4.37;91.36;103158.03;5020720;28;20025;-47
2022/01/23 08:18:03;;;;;;;7.22;4.07;;;;;;;4.38;91.24;103149.09;5020116;28;20387;-46
2022/01/23 08:20:29;;;;;;;5.85;3.10;;;;;;;4.38;91.74;103153.56;5012118;28;20105;-49
2022/01/23 08:22:55;;;;;;;7.50;3.13;;;;;;;4.44;90.72;103160.91;5023054;28;20021;-46
2022/01/23 08:25:20;;;;;;;6.18;3.67;;;;;;;4.48;90.14;103167.59;5013500;28;20057;-46
2022/01/23 08:27:46;;;;;;;7.32;3.45;;;;;;;4.51;89.61;103168.16;5019420;28;20624;-46
2022/01/23 08:30:13;;;;;;;6.20;3.10;;;;;;;4.54;89.52;103167.84;5018848;28;20018;-46
2022/01/23 08:32:39;;;;;;;5.35;3.15;;;;;;;4.57;89.27;103179.16;5019440;28;20032;-47
2022/01/23 08:35:05;;;;;;;7.35;3.92;;;;;;;4.59;89.12;103180.69;5019207;28;20265;-46
2022/01/23 08:37:31;;;;;;;7.43;3.63;;;;;;;4.62;89.15;103176.88;5020167;28;20491;-46
2022/01/23 08:39:57;;;;;;;7.20;3.22;;;;;;;4.65;88.75;103187.19;5021915;28;20174;-47
2022/01/23 08:42:22;;;;;;;8.00;3.63;;;;;;;4.65;88.94;103187.19;5016330;28;20056;-46
2022/01/23 08:44:49;;;;;;;7.03;2.97;;;;;;;4.57;90.23;103190.63;5017933;28;20100;-47
2022/01/23 08:47:16;;;;;;;6.68;3.38;;;;;;;4.59;90.15;103185.16;5020608;28;20478;-46
2022/01/23 08:49:46;;;;;;;6.10;2.80;;;;;;;4.60;89.61;103200.09;5018594;28;20075;-46
2022/01/23 08:52:16;;;;;;;8.45;3.20;;;;;;;4.57;90.14;103201.25;5018566;28;20479;-49
2022/01/23 08:54:43;;;;;;;5.45;3.50;;;;;;;4.61;89.73;103196.47;5020420;28;20272;-46
2022/01/23 08:57:09;;;;;;;6.53;2.72;;;;;;;4.57;91.13;103198.59;5014632;28;20025;-47
2022/01/23 08:59:34;;;;;;;6.50;3.45;;;;;;;4.55;90.84;103196.06;5019001;28;20510;-47
2022/01/23 09:02:00;;;;;;;6.40;3.42;;;;;;;4.62;90.32;103193.66;5017670;28;20025;-46
2022/01/23 09:04:25;;;;;;;6.43;2.90;;;;;;;4.68;89.46;103200.22;5021057;28;20029;-49
2022/01/23 09:06:51;;;;;;;6.68;3.10;;;;;;;4.64;90.94;103201.47;5022344;28;20021;-49
2022/01/23 09:09:20;;;;;;;6.60;3.10;;;;;;;4.67;90.24;103204.69;5023791;28;20511;-48
2022/01/23 09:14:28;;;;;;;7.78;2.88;;;;;;;4.59;91.73;103215.19;5020007;28;20029;-47
2022/01/23 09:16:55;;;;;;;8.90;3.28;;;;;;;4.64;90.78;103218.22;5004590;28;20087;-47
2022/01/23 09:19:22;;;;;;;5.28;3.67;;;;;;;4.67;90.65;103212.66;5018139;28;20112;-47
2022/01/23 09:21:49;;;;;;;6.85;2.80;;;;;;;4.67;90.50;103220.63;5021541;28;20087;-47
2022/01/23 09:24:20;;;;;;;6.75;2.85;;;;;;;4.69;90.64;103221.31;5019368;28;20100;-47
2022/01/23 09:26:52;;;;;;;4.55;2.83;;;;;;;4.67;91.17;103214.44;5020928;28;20056;-47
2022/01/23 09:29:25;;;;;;;6.00;3.35;;;;;;;4.73;90.35;103219.19;5021616;28;20025;-48
2022/01/23 09:31:52;;;;;;;4.85;2.60;;;;;;;4.78;89.96;103224.88;5021323;28;20025;-46
2022/01/23 09:34:32;;;;;;;9.38;3.10;;;;;;;4.80;89.75;103233.53;5021255;28;20045;-46
2022/01/23 09:37:00;;;;;;;4.93;2.90;;;;;;;4.85;89.42;103223.31;5022710;28;20052;-47
2022/01/23 09:39:26;;;;;;;6.95;3.13;;;;;;;4.84;89.40;103203.84;5021678;28;20025;-50
2022/01/23 09:41:57;;;;;;;6.03;3.10;;;;;;;4.88;88.84;103201.75;5018306;28;20017;-48
2022/01/23 09:44:24;;;;;;;5.43;3.72;;;;;;;4.94;88.50;103201.13;5004093;28;20092;-47
2022/01/23 09:46:49;;;;;;;4.10;2.60;;;;;;;4.95;88.49;103208.13;5019786;28;20029;-48
2022/01/23 09:49:17;;;;;;;5.38;2.85;;;;;;;4.89;89.11;103219.34;5020103;28;20044;-48
2022/01/23 09:51:46;;;;;;;4.72;3.35;;;;;;;4.94;88.40;103221.56;5017526;28;20057;-50
2022/01/23 09:54:15;;;;;;;5.78;3.70;;;;;;;4.92;88.43;103224.38;5017579;28;20063;-46
2022/01/23 09:56:42;;;;;;;4.85;3.17;;;;;;;4.95;88.31;103217.91;5016208;28;20037;-47
2022/01/23 09:59:14;;;;;;;5.00;3.70;;;;;;;4.93;88.31;103210.09;5018317;28;20376;-46
2022/01/23 10:01:41;;;;;;;6.43;3.25;;;;;;;4.93;88.28;103214.56;5020980;28;20446;-47
2022/01/23 10:04:08;;;;;;;6.40;2.92;;;;;;;4.93;88.19;103210.09;5013735;28;20033;-46
2022/01/23 10:06:34;;;;;;;3.85;3.33;;;;;;;4.94;88.86;103205.63;5020770;28;20033;-47
2022/01/23 10:09:01;;;;;;;8.40;3.40;;;;;;;4.92;88.92;103218.22;5015647;28;20403;-48
2022/01/23 10:11:31;;;;;;;6.43;3.72;;;;;;;4.98;88.28;103214.94;5022222;28;20021;-48
2022/01/23 10:13:57;;;;;;;7.13;4.53;;;;;;;5.01;88.14;103218.13;5021627;28;20025;-46
2022/01/23 10:16:22;;;;;;;8.15;5.05;;;;;;;5.05;88.05;103211.56;5020753;28;20549;-48
2022/01/23 10:18:48;;;;;;;6.88;5.20;;;;;;;5.04;88.04;103207.22;5019113;28;20040;-48
2022/01/23 10:21:14;;;;;;;9.27;5.20;;;;;;;5.02;88.56;103208.34;5019266;28;20029;-46
2022/01/23 10:23:41;;;;;;;6.95;4.88;;;;;;;5.07;87.76;103198.94;5016527;28;20078;-46
2022/01/23 10:26:06;;;;;;;5.43;3.75;;;;;;;5.12;87.75;103206.47;5017537;28;20025;-47
2022/01/23 10:28:34;;;;;;;7.10;3.72;;;;;;;5.16;87.61;103202.50;5020959;28;20260;-47
2022/01/23 10:31:05;;;;;;;7.05;3.85;;;;;;;5.20;87.27;103205.69;5016605;28;20033;-47
2022/01/23 10:33:36;;;;;;;9.88;3.58;;;;;;;5.19;87.46;103201.34;5015484;28;20038;-46
2022/01/23 10:36:11;;;;;;;5.82;3.53;;;;;;;5.22;87.30;103209.06;5017746;28;20355;-47
2022/01/23 10:38:51;;;;;;;7.72;4.65;;;;;;;5.23;87.17;103216.88;5017787;28;20083;-47
2022/01/23 10:49:56;;;;;;;7.28;3.63;;;;;;;5.22;87.16;103223.19;5014035;28;22228;-48
2022/01/23 10:52:32;;;;;;;5.82;3.63;;;;;;;5.24;87.45;103231.00;5021677;28;20542;-46
2022/01/23 10:54:58;;;;;;;7.65;3.42;;;;;;;5.29;87.24;103228.72;5019379;28;20487;-46
2022/01/23 10:57:33;;;;;;;6.78;3.33;;;;;;;5.30;87.17;103227.72;5017648;28;20031;-47
2022/01/23 11:00:02;;;;;;;;;;;;;;;5.28;87.19;103227.88;5018028;28;20486;-47
2022/01/23 11:02:27;;;;;;;6.25;3.67;;;;;;;5.40;86.93;103239.13;5022959;28;20290;-47
2022/01/23 11:05:07;;;;;;;5.68;3.33;;;;;;;5.41;86.49;103238.97;5019166;28;20095;-46
2022/01/23 11:07:34;;;;;;;5.63;3.15;;;;;;;5.48;86.63;103244.50;5011337;28;20429;-49
2022/01/23 11:10:03;;;;;;;7.43;3.20;;;;;;;5.51;86.39;103236.19;5018613;28;20112;-48
2022/01/23 11:18:13;;;;;;;5.25;3.10;;;;;;;5.56;86.11;103239.22;5019276;28;20471;-47
2022/01/23 11:20:48;;;;;;;5.10;2.95;;;;;;;5.59;85.79;103248.75;5022219;28;20845;-47
2022/01/23 11:23:28;;;;;;;5.15;2.92;;;;;;;5.60;85.40;103248.59;5023052;28;20072;-46
2022/01/23 11:25:56;;;;;;;8.15;3.35;;;;;;;5.65;85.75;103246.28;5022895;28;20514;-46
2022/01/23 11:28:29;;;;;;;7.55;3.55;;;;;;;5.68;85.70;103234.50;5021963;28;20025;-49
2022/01/23 11:30:55;;;;;;;6.90;3.60;;;;;;;5.71;85.46;103239.50;5022965;28;20055;-46
2022/01/23 11:33:20;;;;;;;7.20;3.58;;;;;;;5.71;85.51;103240.34;5020129;28;20048;-47
2022/01/23 11:35:48;;;;;;;6.70;3.28;;;;;;;5.73;85.22;103230.38;5021475;28;20503;-47
2022/01/23 11:38:21;;;;;;;5.97;3.35;;;;;;;5.74;85.11;103231.22;5015370;28;20021;-47
2022/01/23 11:54:46;;;;;;;10.23;4.50;;;;;;;5.79;85.18;103217.47;5020394;28;20036;-47
2022/01/23 11:57:34;;;;;;;5.43;3.80;;;;;;;5.76;85.30;103216.81;5023431;28;20387;-46
2022/01/23 12:00:05;;;;;;;7.35;4.88;;;;;;;5.80;85.01;103209.34;5022774;28;20037;-49
2022/01/23 12:02:42;;;;;;;8.48;3.97;;;;;;;5.80;85.38;103221.81;5021032;28;20030;-48
2022/01/23 12:05:11;;;;;;;9.07;3.80;;;;;;;5.79;85.30;103222.78;5015698;28;20498;-46
2022/01/23 12:07:39;;;;;;;7.15;3.78;;;;;;;5.76;85.59;103216.81;5002408;28;20037;-46
2022/01/23 12:10:32;;;;;;;6.45;3.50;;;;;;;5.68;85.84;103219.38;5022205;28;20048;-47
2022/01/23 12:16:20;;;;;;;4.75;3.25;;;;;;;5.62;86.08;103217.34;5016130;28;20037;-46
2022/01/23 12:19:18;;;;;;;6.00;3.38;;;;;;;5.68;86.22;103223.88;5002440;28;20565;-46
2022/01/23 12:21:45;;;;;;;7.78;3.67;;;;;;;5.69;86.50;103213.06;5014132;28;20054;-46
2022/01/23 12:24:15;;;;;;;4.13;2.95;;;;;;;5.68;86.47;103210.56;5022799;28;20029;-46
2022/01/23 12:26:43;;;;;;;7.55;3.33;;;;;;;5.65;86.82;103226.84;5016402;28;20025;-47
2022/01/23 12:29:22;;;;;;;6.97;3.40;;;;;;;5.67;86.64;103235.50;5020370;28;20037;-47
2022/01/23 12:31:48;;;;;;;7.15;3.60;;;;;;;5.74;86.41;103233.88;5016271;28;20033;-48
2022/01/23 12:34:14;;;;;;;5.38;3.38;;;;;;;5.79;86.45;103233.44;5017542;28;20022;-46
2022/01/23 12:36:43;;;;;;;8.05;3.58;;;;;;;5.84;85.96;103231.13;5019010;28;20041;-46
2022/01/23 12:39:08;;;;;;;9.68;3.05;;;;;;;5.89;85.93;103242.13;5016550;28;20039;-47
2022/01/23 12:41:39;;;;;;;5.93;3.40;;;;;;;5.90;85.63;103243.84;5016382;28;20173;-47
2022/01/23 12:44:08;;;;;;;5.50;3.30;;;;;;;5.92;85.60;103247.16;5019342;28;20055;-46
2022/01/23 12:46:35;;;;;;;7.43;3.67;;;;;;;5.95;84.94;103250.38;5020287;28;20055;-46
2022/01/23 12:49:29;;;;;;;8.05;3.15;;;;;;;5.92;85.33;103249.81;5023336;28;20565;-48
2022/01/23 12:52:07;;;;;;;6.20;3.38;;;;;;;5.93;85.09;103246.22;5012923;28;20041;-47
2022/01/23 12:55:00;;;;;;;8.65;3.63;;;;;;;5.93;85.32;103240.88;5004380;28;20445;-47
2022/01/23 12:57:38;;;;;;;7.68;3.95;;;;;;;5.98;85.28;103243.91;5017647;28;20044;-47
2022/01/23 13:00:22;;;;;;;9.05;5.70;;;;;;;5.96;84.83;103245.88;5023182;28;20083;-48
2022/01/23 13:02:51;;;;;;;8.10;5.15;;;;;;;5.97;85.06;103247.56;5025409;28;20025;-47
2022/01/23 13:05:17;;;;;;;6.95;4.10;;;;;;;5.96;84.61;103246.72;5016655;28;20029;-46
2022/01/23 13:13:17;;;;;;;5.13;2.92;;;;;;;5.85;85.41;103248.75;5022647;28;20048;-48
2022/01/23 13:16:02;;;;;;;3.55;2.50;;;;;;;5.82;85.99;103249.09;5021370;28;20390;-48
2022/01/23 13:32:24;;;;;;;;;;;;;;;5.85;84.88;103256.75;5019226;28;20044;-46
2022/01/23 13:35:03;;;;;;;3.65;2.00;;;;;;;5.95;84.71;103269.00;5024625;28;19917;-50
2022/01/23 13:37:33;;;;;;;4.40;1.98;;;;;;;5.97;84.74;103269.69;5007323;28;20040;-46
2022/01/23 13:40:13;;;;;;;4.43;2.15;;;;;;;5.98;84.11;103270.50;5016390;28;20041;-47
2022/01/23 13:42:56;;;;;;;3.50;2.40;;;;;;;5.96;84.88;103273.34;5016383;28;20041;-46
2022/01/23 14:02:19;;;;;;;7.90;3.58;;;;;;;5.89;85.03;103261.59;5015952;28;20045;-47
2022/01/23 14:04:48;;;;;;;8.57;4.68;;;;;;;5.94;84.52;103261.19;5017062;28;20030;-46
2022/01/23 14:07:19;;;;;;;11.35;5.05;;;;;;;5.95;84.61;103262.84;5013105;28;20518;-47
2022/01/23 14:09:45;;;;;;;4.82;2.78;;;;;;;5.98;84.62;103262.53;5005159;28;20112;-47
2022/01/23 14:12:17;;;;;;;4.35;2.38;;;;;;;5.98;84.58;103257.22;5020324;28;20276;-47
2022/01/23 14:14:52;;;;;;;4.70;2.38;;;;;;;5.97;84.69;103261.69;5019357;28;20025;-47
2022/01/23 14:17:18;;;;;;;6.53;2.10;;;;;;;5.98;84.94;103252.72;5018986;28;20033;-47
2022/01/23 14:20:13;;;;;;;5.18;2.50;;;;;;;5.96;84.69;103256.53;5015423;28;20033;-46
2022/01/23 14:22:42;;;;;;;5.10;2.35;;;;;;;5.99;84.81;103259.72;5020361;28;20469;-48
2022/01/23 14:25:21;;;;;;;6.30;2.97;;;;;;;5.91;85.58;103256.97;5022917;28;20044;-46
2022/01/23 14:28:12;;;;;;;4.75;3.40;;;;;;;5.80;86.88;103269.69;5023643;28;20128;-48
2022/01/23 14:30:50;;;;;;;4.90;3.38;;;;;;;5.84;86.64;103263.06;5020007;28;20021;-47
2022/01/23 14:33:17;;;;;;;7.45;2.97;;;;;;;5.88;86.60;103277.72;5021762;28;20376;-47
2022/01/23 14:35:43;;;;;;;4.55;2.67;;;;;;;5.89;85.86;103271.41;5010965;28;20428;-46
2022/01/23 14:38:09;;;;;;;5.38;2.97;;;;;;;5.89;85.97;103276.72;5016683;28;20288;-46
2022/01/23 14:40:34;;;;;;;7.47;2.85;;;;;;;5.93;86.14;103278.13;5017554;28;20028;-46
2022/01/23 14:43:08;;;;;;;8.45;3.00;;;;;;;5.97;85.35;103282.16;5017645;28;20115;-49
2022/01/23 14:45:37;;;;;;;3.10;2.30;;;;;;;5.98;85.58;103283.81;5018710;28;20364;-47
2022/01/23 14:48:05;;;;;;;3.97;2.20;;;;;;;5.99;85.46;103285.50;5022684;28;20029;-47
2022/01/23 14:50:34;;;;;;;4.15;2.70;;;;;;;6.01;84.91;103280.84;5019649;28;20017;-49
2022/01/23 14:53:12;;;;;;;3.78;2.65;;;;;;;6.00;84.81;103284.50;5017687;28;20033;-46
2022/01/23 14:55:43;;;;;;;6.18;2.90;;;;;;;6.02;84.94;103274.53;5015610;28;20030;-47
2022/01/23 14:58:14;;;;;;;5.22;2.90;;;;;;;6.02;84.71;103278.03;5015225;28;20449;-47
2022/01/23 15:00:40;;;;;;;5.57;2.72;;;;;;;6.02;85.07;103288.66;5001681;28;20021;-46
2022/01/23 15:03:07;;;;;;;4.57;2.88;;;;;;;6.03;85.07;103278.84;5011886;28;21189;-46
2022/01/23 15:05:36;;;;;;;3.72;2.53;;;;;;;6.01;84.78;103279.00;5023955;28;20034;-46
2022/01/23 15:08:05;;;;;;;4.30;2.40;;;;;;;5.94;84.88;103277.16;5022870;28;20029;-48
2022/01/23 15:10:31;;;;;;;5.55;2.80;;;;;;;5.91;85.71;103277.44;5022851;28;20505;-47
2022/01/23 15:12:58;;;;;;;4.55;2.70;;;;;;;5.94;84.92;103277.16;5018048;28;20041;-48
2022/01/23 15:15:24;;;;;;;4.38;3.30;;;;;;;5.96;84.78;103285.81;5017278;28;20032;-47
2022/01/23 15:17:50;;;;;;;5.32;2.90;;;;;;;5.96;85.21;103288.47;5016606;28;20056;-49
2022/01/23 15:20:16;;;;;;;5.18;2.50;;;;;;;5.96;84.72;103299.13;5014892;28;20538;-46
2022/01/23 15:22:42;;;;;;;3.42;2.40;;;;;;;5.97;84.78;103298.97;4993760;28;20144;-46
2022/01/23 15:25:10;;;;;;;4.00;2.42;;;;;;;5.94;84.90;103307.25;5016652;28;20029;-47
2022/01/23 15:27:37;;;;;;;7.00;2.78;;;;;;;5.85;85.74;103308.13;5015346;28;20030;-47